sensor_id;sensor_type;location;lat;lon;timestamp;P1;durP1;ratioP1;P2;durP2;ratioP2
79128;SDS011;68529;43.286;23.360;2023-05-17T00:01:50;30.00;;;26.53;;
79128;SDS011;68529;43.286;23.360;2023-05-17T00:04:15;29.90;;;24.97;;
79128;SDS011;68529;43.286;23.360;2023-05-17T00:06:41;32.50;;;26.80;;
79128;SDS011;68529;43.286;23.360;2023-05-17T00:09:06;36.50;;;28.80;;
79128;SDS011;68529;43.286;23.360;2023-05-17T00:11:32;32.17;;;25.57;;
79128;SDS011;68529;43.286;23.360;2023-05-17T00:13:58;29.47;;;26.17;;
79128;SDS011;68529;43.286;23.360;2023-05-17T00:16:23;32.60;;;27.27;;
79128;SDS011;68529;43.286;23.360;2023-05-17T00:18:48;33.73;;;25.93;;
79128;SDS011;68529;43.286;23.360;2023-05-17T00:21:14;31.53;;;24.57;;
79128;SDS011;68529;43.286;23.360;2023-05-17T00:23:39;31.70;;;24.23;;
79128;SDS011;68529;43.286;23.360;2023-05-17T00:26:04;34.53;;;25.33;;
79128;SDS011;68529;43.286;23.360;2023-05-17T00:28:30;29.10;;;24.13;;
79128;SDS011;68529;43.286;23.360;2023-05-17T00:30:55;28.33;;;24.20;;
79128;SDS011;68529;43.286;23.360;2023-05-17T00:33:21;30.83;;;24.13;;
79128;SDS011;68529;43.286;23.360;2023-05-17T00:35:46;34.33;;;25.80;;
79128;SDS011;68529;43.286;23.360;2023-05-17T00:38:11;30.20;;;25.23;;
79128;SDS011;68529;43.286;23.360;2023-05-17T00:40:37;31.97;;;26.20;;
79128;SDS011;68529;43.286;23.360;2023-05-17T00:43:02;27.87;;;24.00;;
79128;SDS011;68529;43.286;23.360;2023-05-17T00:45:27;30.40;;;24.70;;
79128;SDS011;68529;43.286;23.360;2023-05-17T00:47:53;29.37;;;25.57;;
79128;SDS011;68529;43.286;23.360;2023-05-17T00:50:18;29.47;;;25.27;;
79128;SDS011;68529;43.286;23.360;2023-05-17T00:52:44;32.40;;;26.97;;
79128;SDS011;68529;43.286;23.360;2023-05-17T00:55:10;40.27;;;32.03;;
79128;SDS011;68529;43.286;23.360;2023-05-17T00:57:36;35.63;;;29.23;;
79128;SDS011;68529;43.286;23.360;2023-05-17T01:00:02;35.63;;;28.10;;
79128;SDS011;68529;43.286;23.360;2023-05-17T01:02:28;28.70;;;25.60;;
79128;SDS011;68529;43.286;23.360;2023-05-17T01:04:54;22.30;;;19.93;;
79128;SDS011;68529;43.286;23.360;2023-05-17T01:07:19;29.97;;;26.80;;
79128;SDS011;68529;43.286;23.360;2023-05-17T01:09:45;40.53;;;28.27;;
79128;SDS011;68529;43.286;23.360;2023-05-17T01:12:14;37.43;;;29.43;;
79128;SDS011;68529;43.286;23.360;2023-05-17T01:14:57;33.60;;;28.93;;
79128;SDS011;68529;43.286;23.360;2023-05-17T01:17:31;35.43;;;29.37;;
79128;SDS011;68529;43.286;23.360;2023-05-17T01:20:20;29.90;;;26.70;;
79128;SDS011;68529;43.286;23.360;2023-05-17T01:26:18;30.13;;;26.00;;
79128;SDS011;68529;43.286;23.360;2023-05-17T01:28:52;36.97;;;29.30;;
79128;SDS011;68529;43.286;23.360;2023-05-17T01:31:19;34.40;;;27.63;;
79128;SDS011;68529;43.286;23.360;2023-05-17T01:33:45;41.37;;;31.57;;
79128;SDS011;68529;43.286;23.360;2023-05-17T01:36:10;43.20;;;31.67;;
79128;SDS011;68529;43.286;23.360;2023-05-17T01:38:36;41.37;;;32.03;;
79128;SDS011;68529;43.286;23.360;2023-05-17T01:41:06;38.37;;;29.70;;
79128;SDS011;68529;43.286;23.360;2023-05-17T01:46:47;39.33;;;30.73;;
79128;SDS011;68529;43.286;23.360;2023-05-17T01:49:20;36.00;;;29.47;;
79128;SDS011;68529;43.286;23.360;2023-05-17T01:52:06;41.70;;;29.90;;
79128;SDS011;68529;43.286;23.360;2023-05-17T01:54:44;39.40;;;31.77;;
79128;SDS011;68529;43.286;23.360;2023-05-17T01:57:14;38.17;;;30.83;;
79128;SDS011;68529;43.286;23.360;2023-05-17T01:59:43;38.50;;;29.57;;
79128;SDS011;68529;43.286;23.360;2023-05-17T02:02:09;39.53;;;31.37;;
79128;SDS011;68529;43.286;23.360;2023-05-17T02:04:35;37.50;;;29.23;;
79128;SDS011;68529;43.286;23.360;2023-05-17T02:07:01;36.17;;;30.07;;
79128;SDS011;68529;43.286;23.360;2023-05-17T02:09:27;36.10;;;30.07;;
79128;SDS011;68529;43.286;23.360;2023-05-17T02:11:52;34.57;;;29.23;;
79128;SDS011;68529;43.286;23.360;2023-05-17T02:14:18;35.67;;;29.60;;
79128;SDS011;68529;43.286;23.360;2023-05-17T02:16:43;33.73;;;28.63;;
79128;SDS011;68529;43.286;23.360;2023-05-17T02:19:08;35.57;;;28.07;;
79128;SDS011;68529;43.286;23.360;2023-05-17T02:21:36;29.17;;;25.90;;
79128;SDS011;68529;43.286;23.360;2023-05-17T02:24:02;30.80;;;27.33;;
79128;SDS011;68529;43.286;23.360;2023-05-17T02:26:28;29.60;;;26.50;;
79128;SDS011;68529;43.286;23.360;2023-05-17T02:28:53;32.13;;;28.13;;
79128;SDS011;68529;43.286;23.360;2023-05-17T02:31:18;33.17;;;27.83;;
79128;SDS011;68529;43.286;23.360;2023-05-17T02:33:44;31.33;;;27.43;;
79128;SDS011;68529;43.286;23.360;2023-05-17T02:36:09;31.00;;;27.63;;
79128;SDS011;68529;43.286;23.360;2023-05-17T02:38:35;31.40;;;28.10;;
79128;SDS011;68529;43.286;23.360;2023-05-17T02:41:00;30.80;;;26.97;;
79128;SDS011;68529;43.286;23.360;2023-05-17T02:43:27;31.40;;;27.93;;
79128;SDS011;68529;43.286;23.360;2023-05-17T02:45:53;32.23;;;26.90;;
79128;SDS011;68529;43.286;23.360;2023-05-17T02:48:18;33.17;;;27.90;;
79128;SDS011;68529;43.286;23.360;2023-05-17T02:50:43;33.30;;;27.17;;
79128;SDS011;68529;43.286;23.360;2023-05-17T02:53:09;29.50;;;26.60;;
79128;SDS011;68529;43.286;23.360;2023-05-17T02:55:34;32.57;;;27.67;;
79128;SDS011;68529;43.286;23.360;2023-05-17T02:57:59;29.37;;;26.17;;
79128;SDS011;68529;43.286;23.360;2023-05-17T03:00:25;29.23;;;26.23;;
79128;SDS011;68529;43.286;23.360;2023-05-17T03:02:50;33.87;;;29.07;;
79128;SDS011;68529;43.286;23.360;2023-05-17T03:05:16;29.80;;;26.70;;
79128;SDS011;68529;43.286;23.360;2023-05-17T03:07:41;29.57;;;26.37;;
79128;SDS011;68529;43.286;23.360;2023-05-17T03:10:06;29.60;;;26.60;;
79128;SDS011;68529;43.286;23.360;2023-05-17T03:12:32;28.93;;;25.93;;
79128;SDS011;68529;43.286;23.360;2023-05-17T03:14:57;29.60;;;26.70;;
79128;SDS011;68529;43.286;23.360;2023-05-17T03:17:23;31.93;;;26.83;;
79128;SDS011;68529;43.286;23.360;2023-05-17T03:19:49;28.50;;;25.43;;
79128;SDS011;68529;43.286;23.360;2023-05-17T03:22:14;32.33;;;28.07;;
79128;SDS011;68529;43.286;23.360;2023-05-17T03:24:40;29.47;;;26.47;;
79128;SDS011;68529;43.286;23.360;2023-05-17T03:27:05;29.67;;;26.53;;
79128;SDS011;68529;43.286;23.360;2023-05-17T03:29:30;28.97;;;24.70;;
79128;SDS011;68529;43.286;23.360;2023-05-17T03:31:56;28.33;;;25.07;;
79128;SDS011;68529;43.286;23.360;2023-05-17T03:53:09;29.63;;;26.47;;
79128;SDS011;68529;43.286;23.360;2023-05-17T03:55:35;29.27;;;26.13;;
79128;SDS011;68529;43.286;23.360;2023-05-17T03:58:00;28.93;;;25.93;;
79128;SDS011;68529;43.286;23.360;2023-05-17T04:00:25;29.17;;;26.07;;
79128;SDS011;68529;43.286;23.360;2023-05-17T04:02:51;28.47;;;25.40;;
79128;SDS011;68529;43.286;23.360;2023-05-17T04:05:17;28.00;;;25.10;;
79128;SDS011;68529;43.286;23.360;2023-05-17T04:07:42;30.53;;;26.07;;
79128;SDS011;68529;43.286;23.360;2023-05-17T04:10:08;29.83;;;26.63;;
79128;SDS011;68529;43.286;23.360;2023-05-17T04:12:34;29.87;;;26.60;;
79128;SDS011;68529;43.286;23.360;2023-05-17T04:14:59;27.90;;;25.03;;
79128;SDS011;68529;43.286;23.360;2023-05-17T04:17:25;28.60;;;25.30;;
79128;SDS011;68529;43.286;23.360;2023-05-17T04:19:51;28.27;;;25.23;;
79128;SDS011;68529;43.286;23.360;2023-05-17T04:22:17;28.20;;;25.23;;
79128;SDS011;68529;43.286;23.360;2023-05-17T04:24:42;27.97;;;24.87;;
79128;SDS011;68529;43.286;23.360;2023-05-17T04:27:07;26.07;;;23.33;;
79128;SDS011;68529;43.286;23.360;2023-05-17T04:29:33;26.67;;;23.97;;
79128;SDS011;68529;43.286;23.360;2023-05-17T04:31:59;27.90;;;24.73;;
79128;SDS011;68529;43.286;23.360;2023-05-17T04:34:24;23.73;;;20.83;;
79128;SDS011;68529;43.286;23.360;2023-05-17T04:36:50;28.23;;;25.20;;
79128;SDS011;68529;43.286;23.360;2023-05-17T04:39:15;29.47;;;25.37;;
79128;SDS011;68529;43.286;23.360;2023-05-17T04:41:43;27.27;;;24.37;;
79128;SDS011;68529;43.286;23.360;2023-05-17T04:44:09;30.83;;;27.60;;
79128;SDS011;68529;43.286;23.360;2023-05-17T04:46:35;32.60;;;29.20;;
79128;SDS011;68529;43.286;23.360;2023-05-17T04:49:01;30.93;;;27.03;;
79128;SDS011;68529;43.286;23.360;2023-05-17T04:51:27;32.03;;;27.40;;
79128;SDS011;68529;43.286;23.360;2023-05-17T04:53:53;27.47;;;24.57;;
79128;SDS011;68529;43.286;23.360;2023-05-17T04:56:19;30.60;;;27.57;;
79128;SDS011;68529;43.286;23.360;2023-05-17T04:58:44;29.43;;;26.27;;
79128;SDS011;68529;43.286;23.360;2023-05-17T05:01:10;32.63;;;25.33;;
79128;SDS011;68529;43.286;23.360;2023-05-17T05:03:36;30.03;;;26.73;;
79128;SDS011;68529;43.286;23.360;2023-05-17T05:06:01;30.73;;;26.57;;
79128;SDS011;68529;43.286;23.360;2023-05-17T05:08:28;30.67;;;26.77;;
79128;SDS011;68529;43.286;23.360;2023-05-17T05:10:53;26.27;;;21.97;;
79128;SDS011;68529;43.286;23.360;2023-05-17T05:13:20;31.10;;;26.03;;
79128;SDS011;68529;43.286;23.360;2023-05-17T05:15:46;28.53;;;24.03;;
79128;SDS011;68529;43.286;23.360;2023-05-17T05:18:11;30.77;;;27.43;;
79128;SDS011;68529;43.286;23.360;2023-05-17T05:20:37;24.50;;;21.10;;
79128;SDS011;68529;43.286;23.360;2023-05-17T05:23:02;29.33;;;24.80;;
79128;SDS011;68529;43.286;23.360;2023-05-17T05:25:29;32.53;;;26.83;;
79128;SDS011;68529;43.286;23.360;2023-05-17T05:27:55;35.30;;;27.30;;
79128;SDS011;68529;43.286;23.360;2023-05-17T05:30:21;40.37;;;27.83;;
79128;SDS011;68529;43.286;23.360;2023-05-17T05:32:47;33.03;;;28.93;;
79128;SDS011;68529;43.286;23.360;2023-05-17T05:35:13;35.03;;;29.03;;
79128;SDS011;68529;43.286;23.360;2023-05-17T05:37:40;37.23;;;27.53;;
79128;SDS011;68529;43.286;23.360;2023-05-17T05:40:06;37.83;;;27.97;;
79128;SDS011;68529;43.286;23.360;2023-05-17T05:42:32;32.17;;;27.37;;
79128;SDS011;68529;43.286;23.360;2023-05-17T05:44:58;31.63;;;28.27;;
79128;SDS011;68529;43.286;23.360;2023-05-17T05:47:23;33.93;;;26.13;;
79128;SDS011;68529;43.286;23.360;2023-05-17T05:49:49;29.20;;;21.60;;
79128;SDS011;68529;43.286;23.360;2023-05-17T05:52:14;33.33;;;25.33;;
79128;SDS011;68529;43.286;23.360;2023-05-17T05:54:40;37.30;;;29.93;;
79128;SDS011;68529;43.286;23.360;2023-05-17T05:57:05;35.27;;;29.47;;
79128;SDS011;68529;43.286;23.360;2023-05-17T05:59:30;32.40;;;28.23;;
79128;SDS011;68529;43.286;23.360;2023-05-17T06:01:56;32.90;;;26.63;;
79128;SDS011;68529;43.286;23.360;2023-05-17T06:04:21;32.83;;;25.60;;
79128;SDS011;68529;43.286;23.360;2023-05-17T06:06:47;33.70;;;27.00;;
79128;SDS011;68529;43.286;23.360;2023-05-17T06:09:12;29.93;;;26.43;;
79128;SDS011;68529;43.286;23.360;2023-05-17T06:11:38;32.27;;;26.53;;
79128;SDS011;68529;43.286;23.360;2023-05-17T06:14:03;30.70;;;24.77;;
79128;SDS011;68529;43.286;23.360;2023-05-17T06:16:29;31.13;;;26.80;;
79128;SDS011;68529;43.286;23.360;2023-05-17T06:18:55;31.30;;;25.80;;
79128;SDS011;68529;43.286;23.360;2023-05-17T06:21:20;31.03;;;25.53;;
79128;SDS011;68529;43.286;23.360;2023-05-17T06:23:45;31.23;;;27.83;;
79128;SDS011;68529;43.286;23.360;2023-05-17T06:26:11;31.87;;;28.13;;
79128;SDS011;68529;43.286;23.360;2023-05-17T06:28:36;32.33;;;28.73;;
79128;SDS011;68529;43.286;23.360;2023-05-17T06:31:02;27.13;;;23.73;;
79128;SDS011;68529;43.286;23.360;2023-05-17T06:33:27;31.03;;;26.87;;
79128;SDS011;68529;43.286;23.360;2023-05-17T06:35:56;33.90;;;24.77;;
79128;SDS011;68529;43.286;23.360;2023-05-17T06:38:21;30.87;;;25.77;;
79128;SDS011;68529;43.286;23.360;2023-05-17T06:40:50;29.87;;;26.40;;
79128;SDS011;68529;43.286;23.360;2023-05-17T06:43:19;32.13;;;25.03;;
79128;SDS011;68529;43.286;23.360;2023-05-17T06:45:45;30.10;;;25.77;;
79128;SDS011;68529;43.286;23.360;2023-05-17T06:48:11;26.53;;;23.03;;
79128;SDS011;68529;43.286;23.360;2023-05-17T06:50:36;27.10;;;24.23;;
79128;SDS011;68529;43.286;23.360;2023-05-17T06:53:02;32.27;;;26.50;;
79128;SDS011;68529;43.286;23.360;2023-05-17T07:14:18;26.87;;;24.00;;
79128;SDS011;68529;43.286;23.360;2023-05-17T07:16:44;28.87;;;25.50;;
79128;SDS011;68529;43.286;23.360;2023-05-17T07:19:09;28.40;;;25.07;;
79128;SDS011;68529;43.286;23.360;2023-05-17T07:21:34;25.13;;;22.57;;
79128;SDS011;68529;43.286;23.360;2023-05-17T07:24:00;26.63;;;23.90;;
79128;SDS011;68529;43.286;23.360;2023-05-17T07:26:25;25.63;;;22.87;;
79128;SDS011;68529;43.286;23.360;2023-05-17T07:28:51;27.50;;;22.47;;
79128;SDS011;68529;43.286;23.360;2023-05-17T07:31:16;27.17;;;24.10;;
79128;SDS011;68529;43.286;23.360;2023-05-17T07:33:42;26.03;;;23.33;;
79128;SDS011;68529;43.286;23.360;2023-05-17T07:36:08;25.90;;;23.20;;
79128;SDS011;68529;43.286;23.360;2023-05-17T07:38:33;26.27;;;23.47;;
79128;SDS011;68529;43.286;23.360;2023-05-17T07:41:02;27.20;;;24.40;;
79128;SDS011;68529;43.286;23.360;2023-05-17T07:43:28;25.53;;;22.43;;
79128;SDS011;68529;43.286;23.360;2023-05-17T07:45:54;26.03;;;23.40;;
79128;SDS011;68529;43.286;23.360;2023-05-17T07:48:19;24.67;;;21.83;;
79128;SDS011;68529;43.286;23.360;2023-05-17T07:50:45;26.27;;;23.43;;
79128;SDS011;68529;43.286;23.360;2023-05-17T07:53:10;24.67;;;22.00;;
79128;SDS011;68529;43.286;23.360;2023-05-17T07:55:36;22.53;;;20.20;;
79128;SDS011;68529;43.286;23.360;2023-05-17T07:58:01;22.90;;;20.73;;
79128;SDS011;68529;43.286;23.360;2023-05-17T08:00:27;20.77;;;18.77;;
79128;SDS011;68529;43.286;23.360;2023-05-17T08:02:53;24.00;;;21.60;;
79128;SDS011;68529;43.286;23.360;2023-05-17T08:05:18;23.67;;;20.13;;
79128;SDS011;68529;43.286;23.360;2023-05-17T08:07:44;22.80;;;20.60;;
79128;SDS011;68529;43.286;23.360;2023-05-17T08:10:09;26.17;;;23.07;;
79128;SDS011;68529;43.286;23.360;2023-05-17T08:12:35;23.70;;;21.37;;
79128;SDS011;68529;43.286;23.360;2023-05-17T08:15:00;19.77;;;17.83;;
79128;SDS011;68529;43.286;23.360;2023-05-17T08:17:26;20.30;;;18.30;;
79128;SDS011;68529;43.286;23.360;2023-05-17T08:19:51;21.07;;;19.10;;
79128;SDS011;68529;43.286;23.360;2023-05-17T08:22:16;22.63;;;20.40;;
79128;SDS011;68529;43.286;23.360;2023-05-17T08:24:42;19.17;;;17.43;;
79128;SDS011;68529;43.286;23.360;2023-05-17T08:27:10;19.37;;;17.37;;
79128;SDS011;68529;43.286;23.360;2023-05-17T08:29:36;18.17;;;16.37;;
79128;SDS011;68529;43.286;23.360;2023-05-17T08:32:01;17.30;;;15.67;;
79128;SDS011;68529;43.286;23.360;2023-05-17T08:34:27;17.40;;;15.73;;
79128;SDS011;68529;43.286;23.360;2023-05-17T08:36:52;16.30;;;14.70;;
79128;SDS011;68529;43.286;23.360;2023-05-17T08:39:17;15.83;;;14.40;;
79128;SDS011;68529;43.286;23.360;2023-05-17T08:41:45;15.90;;;14.40;;
79128;SDS011;68529;43.286;23.360;2023-05-17T08:44:11;14.93;;;13.30;;
79128;SDS011;68529;43.286;23.360;2023-05-17T08:46:39;15.37;;;13.97;;
79128;SDS011;68529;43.286;23.360;2023-05-17T08:49:05;15.73;;;14.23;;
79128;SDS011;68529;43.286;23.360;2023-05-17T08:51:32;14.73;;;13.23;;
79128;SDS011;68529;43.286;23.360;2023-05-17T08:53:59;14.80;;;13.43;;
79128;SDS011;68529;43.286;23.360;2023-05-17T08:56:29;16.03;;;14.40;;
79128;SDS011;68529;43.286;23.360;2023-05-17T08:58:56;18.40;;;14.93;;
79128;SDS011;68529;43.286;23.360;2023-05-17T09:01:22;15.67;;;14.17;;
79128;SDS011;68529;43.286;23.360;2023-05-17T09:03:48;17.03;;;15.43;;
79128;SDS011;68529;43.286;23.360;2023-05-17T09:06:19;16.73;;;15.03;;
79128;SDS011;68529;43.286;23.360;2023-05-17T09:08:45;16.87;;;15.27;;
79128;SDS011;68529;43.286;23.360;2023-05-17T09:11:11;16.47;;;14.90;;
79128;SDS011;68529;43.286;23.360;2023-05-17T09:31:34;14.10;;;12.67;;
79128;SDS011;68529;43.286;23.360;2023-05-17T09:34:00;15.33;;;12.70;;
79128;SDS011;68529;43.286;23.360;2023-05-17T09:36:26;13.03;;;11.53;;
79128;SDS011;68529;43.286;23.360;2023-05-17T09:38:55;12.87;;;11.67;;
79128;SDS011;68529;43.286;23.360;2023-05-17T09:41:29;13.70;;;12.30;;
79128;SDS011;68529;43.286;23.360;2023-05-17T09:44:07;13.70;;;11.00;;
79128;SDS011;68529;43.286;23.360;2023-05-17T09:46:33;13.70;;;11.83;;
79128;SDS011;68529;43.286;23.360;2023-05-17T09:49:00;13.73;;;11.77;;
79128;SDS011;68529;43.286;23.360;2023-05-17T09:51:33;12.67;;;11.57;;
79128;SDS011;68529;43.286;23.360;2023-05-17T09:53:59;12.30;;;10.97;;
79128;SDS011;68529;43.286;23.360;2023-05-17T09:56:28;12.33;;;11.10;;
79128;SDS011;68529;43.286;23.360;2023-05-17T09:58:54;12.73;;;11.43;;
79128;SDS011;68529;43.286;23.360;2023-05-17T10:01:21;12.67;;;11.33;;
79128;SDS011;68529;43.286;23.360;2023-05-17T10:03:49;12.97;;;11.67;;
79128;SDS011;68529;43.286;23.360;2023-05-17T10:06:15;13.10;;;11.80;;
79128;SDS011;68529;43.286;23.360;2023-05-17T10:08:45;12.40;;;11.27;;
79128;SDS011;68529;43.286;23.360;2023-05-17T10:11:15;12.83;;;10.67;;
79128;SDS011;68529;43.286;23.360;2023-05-17T10:13:50;12.47;;;11.17;;
79128;SDS011;68529;43.286;23.360;2023-05-17T10:16:19;13.63;;;12.10;;
79128;SDS011;68529;43.286;23.360;2023-05-17T10:18:48;13.70;;;12.40;;
79128;SDS011;68529;43.286;23.360;2023-05-17T10:21:14;11.60;;;10.43;;
79128;SDS011;68529;43.286;23.360;2023-05-17T10:23:41;15.40;;;11.80;;
79128;SDS011;68529;43.286;23.360;2023-05-17T10:26:08;13.77;;;12.57;;
79128;SDS011;68529;43.286;23.360;2023-05-17T10:28:33;14.17;;;12.67;;
79128;SDS011;68529;43.286;23.360;2023-05-17T10:31:00;16.87;;;14.27;;
79128;SDS011;68529;43.286;23.360;2023-05-17T10:33:27;13.80;;;12.40;;
79128;SDS011;68529;43.286;23.360;2023-05-17T10:35:56;13.50;;;12.30;;
79128;SDS011;68529;43.286;23.360;2023-05-17T10:38:22;14.03;;;12.63;;
79128;SDS011;68529;43.286;23.360;2023-05-17T10:40:48;13.83;;;12.50;;
79128;SDS011;68529;43.286;23.360;2023-05-17T10:43:16;15.10;;;13.10;;
79128;SDS011;68529;43.286;23.360;2023-05-17T10:45:42;14.30;;;13.10;;
79128;SDS011;68529;43.286;23.360;2023-05-17T10:48:09;15.57;;;13.00;;
79128;SDS011;68529;43.286;23.360;2023-05-17T10:50:38;15.00;;;12.57;;
79128;SDS011;68529;43.286;23.360;2023-05-17T10:53:07;16.00;;;13.60;;
79128;SDS011;68529;43.286;23.360;2023-05-17T10:55:36;15.27;;;13.87;;
79128;SDS011;68529;43.286;23.360;2023-05-17T11:00:40;16.90;;;15.00;;
79128;SDS011;68529;43.286;23.360;2023-05-17T11:03:10;15.97;;;14.37;;
79128;SDS011;68529;43.286;23.360;2023-05-17T11:05:38;16.73;;;15.07;;
79128;SDS011;68529;43.286;23.360;2023-05-17T11:08:13;19.07;;;14.67;;
79128;SDS011;68529;43.286;23.360;2023-05-17T11:13:43;17.63;;;15.57;;
79128;SDS011;68529;43.286;23.360;2023-05-17T11:16:12;16.33;;;14.73;;
79128;SDS011;68529;43.286;23.360;2023-05-17T11:18:53;17.90;;;15.73;;
79128;SDS011;68529;43.286;23.360;2023-05-17T11:21:19;15.67;;;14.17;;
79128;SDS011;68529;43.286;23.360;2023-05-17T11:23:47;17.00;;;15.37;;
79128;SDS011;68529;43.286;23.360;2023-05-17T11:26:27;18.30;;;16.60;;
79128;SDS011;68529;43.286;23.360;2023-05-17T11:29:01;16.67;;;15.07;;
79128;SDS011;68529;43.286;23.360;2023-05-17T11:31:31;16.90;;;15.47;;
79128;SDS011;68529;43.286;23.360;2023-05-17T11:33:59;18.10;;;15.83;;
79128;SDS011;68529;43.286;23.360;2023-05-17T11:36:27;17.13;;;15.60;;
79128;SDS011;68529;43.286;23.360;2023-05-17T11:41:52;16.93;;;15.23;;
79128;SDS011;68529;43.286;23.360;2023-05-17T11:44:31;17.63;;;15.70;;
79128;SDS011;68529;43.286;23.360;2023-05-17T11:47:05;16.53;;;14.93;;
79128;SDS011;68529;43.286;23.360;2023-05-17T11:49:35;17.53;;;15.87;;
79128;SDS011;68529;43.286;23.360;2023-05-17T11:52:02;18.13;;;15.10;;
79128;SDS011;68529;43.286;23.360;2023-05-17T11:54:28;19.13;;;17.23;;
79128;SDS011;68529;43.286;23.360;2023-05-17T11:56:55;19.97;;;17.20;;
79128;SDS011;68529;43.286;23.360;2023-05-17T11:59:21;17.80;;;15.87;;
79128;SDS011;68529;43.286;23.360;2023-05-17T12:01:48;18.23;;;16.30;;
79128;SDS011;68529;43.286;23.360;2023-05-17T12:04:21;22.53;;;19.13;;
79128;SDS011;68529;43.286;23.360;2023-05-17T12:06:53;20.13;;;17.07;;
79128;SDS011;68529;43.286;23.360;2023-05-17T12:09:19;26.07;;;20.43;;
79128;SDS011;68529;43.286;23.360;2023-05-17T12:11:46;20.17;;;18.07;;
79128;SDS011;68529;43.286;23.360;2023-05-17T12:14:18;20.13;;;18.13;;
79128;SDS011;68529;43.286;23.360;2023-05-17T12:16:44;21.47;;;19.37;;
79128;SDS011;68529;43.286;23.360;2023-05-17T12:19:17;22.17;;;18.40;;
79128;SDS011;68529;43.286;23.360;2023-05-17T12:21:44;22.37;;;19.87;;
79128;SDS011;68529;43.286;23.360;2023-05-17T12:24:10;22.70;;;20.40;;
79128;SDS011;68529;43.286;23.360;2023-05-17T12:26:37;27.97;;;22.20;;
79128;SDS011;68529;43.286;23.360;2023-05-17T12:29:08;24.40;;;21.10;;
79128;SDS011;68529;43.286;23.360;2023-05-17T12:31:38;26.57;;;23.73;;
79128;SDS011;68529;43.286;23.360;2023-05-17T12:34:06;28.47;;;24.83;;
79128;SDS011;68529;43.286;23.360;2023-05-17T12:36:33;24.90;;;22.30;;
79128;SDS011;68529;43.286;23.360;2023-05-17T12:39:01;21.67;;;19.20;;
79128;SDS011;68529;43.286;23.360;2023-05-17T12:41:27;23.00;;;20.67;;
79128;SDS011;68529;43.286;23.360;2023-05-17T12:43:54;21.40;;;19.30;;
79128;SDS011;68529;43.286;23.360;2023-05-17T12:46:21;24.53;;;21.17;;
79128;SDS011;68529;43.286;23.360;2023-05-17T12:48:48;25.40;;;22.80;;
79128;SDS011;68529;43.286;23.360;2023-05-17T12:51:16;26.23;;;23.57;;
79128;SDS011;68529;43.286;23.360;2023-05-17T12:53:43;21.03;;;18.93;;
79128;SDS011;68529;43.286;23.360;2023-05-17T12:56:17;25.20;;;22.43;;
79128;SDS011;68529;43.286;23.360;2023-05-17T12:58:46;22.57;;;20.37;;
79128;SDS011;68529;43.286;23.360;2023-05-17T13:01:44;26.53;;;23.40;;
79128;SDS011;68529;43.286;23.360;2023-05-17T13:04:11;25.80;;;23.40;;
79128;SDS011;68529;43.286;23.360;2023-05-17T13:09:16;27.47;;;23.57;;
79128;SDS011;68529;43.286;23.360;2023-05-17T13:11:48;24.63;;;22.13;;
79128;SDS011;68529;43.286;23.360;2023-05-17T13:17:08;25.83;;;23.13;;
79128;SDS011;68529;43.286;23.360;2023-05-17T13:19:36;25.27;;;22.60;;
79128;SDS011;68529;43.286;23.360;2023-05-17T13:22:03;26.37;;;23.67;;
79128;SDS011;68529;43.286;23.360;2023-05-17T13:24:30;25.00;;;22.50;;
79128;SDS011;68529;43.286;23.360;2023-05-17T13:26:58;24.57;;;21.93;;
79128;SDS011;68529;43.286;23.360;2023-05-17T13:29:24;24.77;;;22.33;;
79128;SDS011;68529;43.286;23.360;2023-05-17T13:31:50;26.20;;;23.50;;
79128;SDS011;68529;43.286;23.360;2023-05-17T13:34:16;23.27;;;20.80;;
79128;SDS011;68529;43.286;23.360;2023-05-17T13:36:42;28.07;;;25.20;;
79128;SDS011;68529;43.286;23.360;2023-05-17T13:39:07;26.17;;;23.33;;
79128;SDS011;68529;43.286;23.360;2023-05-17T13:41:33;30.63;;;23.43;;
79128;SDS011;68529;43.286;23.360;2023-05-17T13:43:58;26.73;;;22.93;;
79128;SDS011;68529;43.286;23.360;2023-05-17T13:46:24;27.27;;;24.40;;
79128;SDS011;68529;43.286;23.360;2023-05-17T13:48:49;27.60;;;24.47;;
79128;SDS011;68529;43.286;23.360;2023-05-17T13:51:14;28.10;;;25.03;;
79128;SDS011;68529;43.286;23.360;2023-05-17T13:53:40;26.00;;;23.13;;
79128;SDS011;68529;43.286;23.360;2023-05-17T13:56:06;27.20;;;24.27;;
79128;SDS011;68529;43.286;23.360;2023-05-17T13:58:32;27.17;;;23.40;;
79128;SDS011;68529;43.286;23.360;2023-05-17T14:00:58;28.03;;;24.07;;
79128;SDS011;68529;43.286;23.360;2023-05-17T14:03:23;25.83;;;23.17;;
79128;SDS011;68529;43.286;23.360;2023-05-17T14:05:49;28.30;;;25.33;;
79128;SDS011;68529;43.286;23.360;2023-05-17T14:08:16;31.37;;;27.77;;
79128;SDS011;68529;43.286;23.360;2023-05-17T14:10:42;30.67;;;27.70;;
79128;SDS011;68529;43.286;23.360;2023-05-17T14:13:07;29.60;;;26.70;;
79128;SDS011;68529;43.286;23.360;2023-05-17T14:15:33;31.53;;;28.20;;
79128;SDS011;68529;43.286;23.360;2023-05-17T14:18:02;26.27;;;23.50;;
79128;SDS011;68529;43.286;23.360;2023-05-17T14:20:28;28.20;;;24.93;;
79128;SDS011;68529;43.286;23.360;2023-05-17T14:22:54;25.80;;;23.07;;
79128;SDS011;68529;43.286;23.360;2023-05-17T14:25:19;26.47;;;23.93;;
79128;SDS011;68529;43.286;23.360;2023-05-17T14:27:45;26.10;;;23.53;;
79128;SDS011;68529;43.286;23.360;2023-05-17T14:30:11;25.63;;;23.00;;
79128;SDS011;68529;43.286;23.360;2023-05-17T14:32:37;25.50;;;23.00;;
79128;SDS011;68529;43.286;23.360;2023-05-17T14:35:03;22.63;;;20.33;;
79128;SDS011;68529;43.286;23.360;2023-05-17T14:37:30;25.00;;;22.40;;
79128;SDS011;68529;43.286;23.360;2023-05-17T14:39:55;27.23;;;22.83;;
79128;SDS011;68529;43.286;23.360;2023-05-17T14:42:21;25.93;;;21.97;;
79128;SDS011;68529;43.286;23.360;2023-05-17T14:44:46;25.60;;;22.93;;
79128;SDS011;68529;43.286;23.360;2023-05-17T14:47:11;27.07;;;22.57;;
79128;SDS011;68529;43.286;23.360;2023-05-17T14:49:37;27.23;;;23.47;;
79128;SDS011;68529;43.286;23.360;2023-05-17T14:52:02;27.30;;;24.53;;
79128;SDS011;68529;43.286;23.360;2023-05-17T14:54:28;29.33;;;23.60;;
79128;SDS011;68529;43.286;23.360;2023-05-17T14:56:56;23.77;;;21.23;;
79128;SDS011;68529;43.286;23.360;2023-05-17T14:59:22;26.10;;;22.23;;
79128;SDS011;68529;43.286;23.360;2023-05-17T15:01:48;24.67;;;22.17;;
79128;SDS011;68529;43.286;23.360;2023-05-17T15:04:14;26.70;;;21.67;;
79128;SDS011;68529;43.286;23.360;2023-05-17T15:06:40;26.53;;;23.50;;
79128;SDS011;68529;43.286;23.360;2023-05-17T15:09:05;27.30;;;24.50;;
79128;SDS011;68529;43.286;23.360;2023-05-17T15:11:31;28.73;;;25.73;;
79128;SDS011;68529;43.286;23.360;2023-05-17T15:13:57;25.80;;;23.00;;
79128;SDS011;68529;43.286;23.360;2023-05-17T15:16:23;25.20;;;22.60;;
79128;SDS011;68529;43.286;23.360;2023-05-17T15:18:49;30.23;;;26.20;;
79128;SDS011;68529;43.286;23.360;2023-05-17T15:21:14;24.13;;;21.53;;
79128;SDS011;68529;43.286;23.360;2023-05-17T15:23:41;24.73;;;22.30;;